createdAt,value
2018-07-01T00:00:10.478Z,1011.85
2018-07-01T00:01:10.204Z,1011.90
2018-07-01T00:02:10.166Z,1011.88
2018-07-01T00:03:10.071Z,1011.88
2018-07-01T00:04:10.090Z,1011.89
2018-07-01T00:05:09.890Z,1011.85
2018-07-01T00:06:09.894Z,1011.87
2018-07-01T00:07:09.724Z,1011.89
2018-07-01T00:08:09.746Z,1011.90
2018-07-01T00:09:09.590Z,1011.96
2018-07-01T00:10:09.612Z,1011.96
2018-07-01T00:11:09.407Z,1011.96
2018-07-01T00:12:09.427Z,1011.96
2018-07-01T00:13:09.286Z,1011.98
2018-07-01T00:14:09.235Z,1011.99
2018-07-01T00:15:09.106Z,1012.02
2018-07-01T00:16:09.134Z,1012.01
2018-07-01T00:17:08.953Z,1012.06
2018-07-01T00:18:08.986Z,1012.07
2018-07-01T00:19:08.792Z,1012.06
2018-07-01T00:20:08.754Z,1012.08
2018-07-01T00:21:08.634Z,1012.04
2018-07-01T00:22:08.685Z,1012.03
2018-07-01T00:23:08.507Z,1012.07
2018-07-01T00:24:08.472Z,1012.02
2018-07-01T00:25:08.340Z,1012.03
2018-07-01T00:26:08.284Z,1012.02
2018-07-01T00:27:08.174Z,1012.02
2018-07-01T00:29:50.214Z,1012.07
2018-07-01T00:30:50.219Z,1012.05
2018-07-01T00:31:50.028Z,1012.07
2018-07-01T00:32:49.998Z,1012.05
2018-07-01T00:33:49.872Z,1012.10
2018-07-01T00:34:49.918Z,1012.11
2018-07-01T00:35:49.730Z,1012.10
2018-07-01T00:38:31.684Z,1012.16
2018-07-01T00:39:31.749Z,1012.15
2018-07-01T00:40:31.524Z,1012.17
2018-07-01T00:41:31.522Z,1012.21
2018-07-01T00:42:31.376Z,1012.19
2018-07-01T00:43:31.332Z,1012.16
2018-07-01T00:44:31.249Z,1012.17
2018-07-01T00:45:31.242Z,1012.23
2018-07-01T00:46:31.057Z,1012.20
2018-07-01T00:47:31.070Z,1012.13
2018-07-01T00:48:30.899Z,1012.20
2018-07-01T00:49:30.860Z,1012.21
2018-07-01T00:50:30.772Z,1012.15
2018-07-01T00:51:30.770Z,1012.21
2018-07-01T00:52:30.616Z,1012.18
2018-07-01T00:53:30.589Z,1012.19
2018-07-01T00:54:30.447Z,1012.20
2018-07-01T00:55:30.430Z,1012.20
2018-07-01T00:56:30.274Z,1012.17
2018-07-01T00:57:30.308Z,1012.17
2018-07-01T00:58:30.115Z,1012.19
2018-07-01T00:59:30.107Z,1012.16
2018-07-01T01:00:29.987Z,1012.16
2018-07-01T01:01:30.013Z,1012.17
2018-07-01T01:02:29.816Z,1012.19
2018-07-01T01:03:29.823Z,1012.17
2018-07-01T01:04:29.652Z,1012.23
2018-07-01T01:05:29.673Z,1012.16
2018-07-01T01:06:29.518Z,1012.19
2018-07-01T01:09:11.699Z,1012.20
2018-07-01T01:10:11.638Z,1012.20
2018-07-01T01:11:11.568Z,1012.21
2018-07-01T01:12:11.572Z,1012.20
2018-07-01T01:13:11.388Z,1012.19
2018-07-01T01:14:11.363Z,1012.20
2018-07-01T01:15:11.233Z,1012.19
2018-07-01T01:16:11.211Z,1012.17
2018-07-01T01:17:11.122Z,1012.18
2018-07-01T01:18:11.084Z,1012.21
2018-07-01T01:19:10.909Z,1012.19
2018-07-01T01:20:10.907Z,1012.20
2018-07-01T01:21:10.761Z,1012.21
2018-07-01T01:37:33.572Z,1012.26
2018-07-01T01:38:33.438Z,1012.28
2018-07-01T01:39:33.454Z,1012.28
2018-07-01T01:40:33.244Z,1012.27
2018-07-01T01:41:33.251Z,1012.22
2018-07-01T01:42:33.091Z,1012.25
2018-07-01T01:43:33.098Z,1012.24
2018-07-01T01:44:32.952Z,1012.24
2018-07-01T01:45:32.968Z,1012.25
2018-07-01T01:46:32.786Z,1012.26
2018-07-01T01:47:32.779Z,1012.23
2018-07-01T01:48:32.648Z,1012.16
2018-07-01T01:49:32.583Z,1012.20
2018-07-01T01:50:32.468Z,1012.21
2018-07-01T01:51:32.503Z,1012.18
2018-07-01T01:52:32.311Z,1012.21
2018-07-01T01:53:32.331Z,1012.15
2018-07-01T01:54:32.154Z,1012.22
2018-07-01T01:55:32.116Z,1012.21
2018-07-01T01:56:31.999Z,1012.19
2018-07-01T01:57:32.025Z,1012.21
2018-07-01T01:58:31.919Z,1012.20
2018-07-01T01:59:31.881Z,1012.18
2018-07-01T02:00:31.676Z,1012.21
2018-07-01T02:01:31.651Z,1012.16
2018-07-01T02:02:31.547Z,1012.15
2018-07-01T02:03:31.556Z,1012.18
2018-07-01T02:04:31.401Z,1012.15
2018-07-01T02:05:31.365Z,1012.12
2018-07-01T02:06:31.210Z,1012.16
2018-07-01T02:07:31.180Z,1012.11
2018-07-01T02:08:31.051Z,1012.14
2018-07-01T02:09:32.039Z,1012.17
2018-07-01T02:10:30.903Z,1012.09
2018-07-01T02:11:30.893Z,1012.14
2018-07-01T02:12:30.736Z,1012.15
2018-07-01T02:13:30.706Z,1012.18
2018-07-01T02:14:30.582Z,1012.21
2018-07-01T02:15:30.691Z,1012.19
2018-07-01T02:16:30.422Z,1012.14
2018-07-01T02:17:30.420Z,1012.18
2018-07-01T02:18:30.264Z,1012.24
2018-07-01T02:19:30.232Z,1012.14
2018-07-01T02:20:30.124Z,1012.18
2018-07-01T02:21:30.150Z,1012.23
2018-07-01T02:22:29.975Z,1012.21
2018-07-01T02:23:29.945Z,1012.19
2018-07-01T02:24:29.831Z,1012.21
2018-07-01T02:25:29.792Z,1012.24
2018-07-01T02:26:29.664Z,1012.23
2018-07-01T02:27:29.667Z,1012.25
2018-07-01T02:28:29.481Z,1012.29
2018-07-01T02:29:29.466Z,1012.28
2018-07-01T02:30:29.360Z,1012.35
2018-07-01T02:31:29.281Z,1012.36
2018-07-01T02:32:29.169Z,1012.35
2018-07-01T02:33:29.194Z,1012.36
2018-07-01T02:34:29.011Z,1012.35
2018-07-01T02:35:29.036Z,1012.37
2018-07-01T02:36:28.857Z,1012.40
2018-07-01T02:37:28.809Z,1012.45
2018-07-01T02:38:28.732Z,1012.45
2018-07-01T02:39:28.714Z,1012.48
2018-07-01T02:40:28.575Z,1012.46
2018-07-01T02:41:28.529Z,1012.52
2018-07-01T02:42:28.385Z,1012.53
2018-07-01T02:43:28.464Z,1012.55
2018-07-01T02:44:28.222Z,1012.55
2018-07-01T02:45:28.277Z,1012.53
2018-07-01T02:46:28.095Z,1012.57
2018-07-01T02:47:28.054Z,1012.56
2018-07-01T02:48:27.913Z,1012.59
2018-07-01T02:49:27.862Z,1012.57
2018-07-01T02:50:27.756Z,1012.61
2018-07-01T02:51:27.798Z,1012.60
2018-07-01T02:52:27.598Z,1012.64
2018-07-01T02:53:27.605Z,1012.63
2018-07-01T02:54:27.448Z,1012.61
2018-07-01T02:55:27.392Z,1012.61
2018-07-01T02:56:27.309Z,1012.62
2018-07-01T02:57:27.305Z,1012.60
2018-07-01T02:58:27.120Z,1012.60
2018-07-01T02:59:27.153Z,1012.62
2018-07-01T03:00:26.969Z,1012.64
2018-07-01T03:01:26.945Z,1012.63
2018-07-01T03:02:26.840Z,1012.61
2018-07-01T03:03:26.838Z,1012.65
2018-07-01T03:04:26.665Z,1012.62
2018-07-01T03:05:26.636Z,1012.66
2018-07-01T03:06:26.490Z,1012.64
2018-07-01T03:07:26.488Z,1012.64
2018-07-01T03:08:26.340Z,1012.65
2018-07-01T03:11:08.232Z,1012.66
2018-07-01T03:13:50.250Z,1012.71
2018-07-01T03:14:50.258Z,1012.70
2018-07-01T03:15:50.076Z,1012.71
2018-07-01T03:16:50.073Z,1012.67
2018-07-01T03:17:49.954Z,1012.74
2018-07-01T03:18:49.864Z,1012.71
2018-07-01T03:19:49.758Z,1012.71
2018-07-01T03:20:49.785Z,1012.77
2018-07-01T03:21:49.606Z,1012.78
2018-07-01T03:22:49.631Z,1012.77
2018-07-01T03:23:49.444Z,1012.81
2018-07-01T03:24:49.501Z,1012.76
2018-07-01T03:25:49.298Z,1012.75
2018-07-01T03:26:49.316Z,1012.78
2018-07-01T03:27:49.179Z,1012.80
2018-07-01T03:28:51.112Z,1012.80
2018-07-01T03:29:48.977Z,1012.76
2018-07-01T03:30:48.928Z,1012.82
2018-07-01T03:31:48.816Z,1012.79
2018-07-01T03:34:30.780Z,1012.85
2018-07-01T03:35:30.729Z,1012.80
2018-07-01T03:36:30.577Z,1012.85
2018-07-01T03:39:12.759Z,1012.81
2018-07-01T03:40:12.744Z,1012.85
2018-07-01T03:41:12.578Z,1012.82
2018-07-01T03:42:12.552Z,1012.80
2018-07-01T03:43:12.431Z,1012.79
2018-07-01T03:44:12.497Z,1012.81
2018-07-01T03:45:12.299Z,1012.85
2018-07-01T03:46:12.270Z,1012.82
2018-07-01T03:47:12.111Z,1012.81
2018-07-01T03:49:36.741Z,1012.79
2018-07-01T03:50:36.805Z,1012.82
2018-07-01T03:51:36.579Z,1012.81
2018-07-01T03:54:18.768Z,1012.80
2018-07-01T03:55:18.841Z,1012.82
2018-07-01T03:57:43.253Z,1012.77
2018-07-01T03:58:43.273Z,1012.79
2018-07-01T03:59:43.106Z,1012.75
2018-07-01T04:00:43.118Z,1012.76
2018-07-01T04:01:42.942Z,1012.72
2018-07-01T04:04:08.244Z,1012.73
2018-07-01T04:05:08.193Z,1012.71
2018-07-01T04:06:08.097Z,1012.75
2018-07-01T04:07:08.106Z,1012.71
2018-07-01T04:08:07.925Z,1012.71
2018-07-01T04:10:49.779Z,1012.69
2018-07-01T04:11:49.721Z,1012.69
2018-07-01T04:12:49.588Z,1012.67
2018-07-01T04:17:04.838Z,1012.65
2018-07-01T04:18:02.670Z,1012.67
2018-07-01T04:19:03.077Z,1012.70
2018-07-01T04:20:02.509Z,1012.65
2018-07-01T04:21:02.469Z,1012.68
2018-07-01T04:22:02.386Z,1012.69
2018-07-01T04:23:02.383Z,1012.68
2018-07-01T04:24:02.201Z,1012.69
2018-07-01T04:25:02.183Z,1012.70
2018-07-01T04:26:02.041Z,1012.68
2018-07-01T04:27:02.029Z,1012.72
2018-07-01T04:28:01.902Z,1012.71
2018-07-01T04:29:01.905Z,1012.69
2018-07-01T04:30:01.730Z,1012.70
2018-07-01T04:31:01.773Z,1012.73
2018-07-01T04:32:01.608Z,1012.69
2018-07-01T04:33:01.519Z,1012.69
2018-07-01T04:34:01.416Z,1012.70
2018-07-01T04:35:01.427Z,1012.71
2018-07-01T04:36:01.250Z,1012.69
2018-07-01T04:37:01.268Z,1012.67
2018-07-01T04:38:01.096Z,1012.66
2018-07-01T04:39:01.050Z,1012.67
2018-07-01T04:40:00.931Z,1012.65
2018-07-01T04:41:00.955Z,1012.69
2018-07-01T04:42:00.806Z,1012.64
2018-07-01T04:43:00.808Z,1012.65
2018-07-01T04:44:00.653Z,1012.62
2018-07-01T04:45:00.571Z,1012.64
2018-07-01T04:46:00.463Z,1012.65
2018-07-01T04:47:00.485Z,1012.64
2018-07-01T04:48:00.358Z,1012.66
2018-07-01T04:49:00.296Z,1012.68
2018-07-01T04:50:00.157Z,1012.66
2018-07-01T04:51:00.107Z,1012.64
2018-07-01T04:52:00.002Z,1012.61
2018-07-01T04:53:00.017Z,1012.59
2018-07-01T04:53:59.860Z,1012.62
2018-07-01T04:54:59.839Z,1012.61
2018-07-01T04:55:59.681Z,1012.60
2018-07-01T04:56:59.631Z,1012.60
2018-07-01T04:57:59.546Z,1012.69
2018-07-01T04:58:59.543Z,1012.66
2018-07-01T04:59:59.394Z,1012.68
2018-07-01T05:00:59.345Z,1012.70
2018-07-01T05:01:59.219Z,1012.67
2018-07-01T05:02:59.158Z,1012.67
2018-07-01T05:03:59.070Z,1012.70
2018-07-01T05:04:59.115Z,1012.73
2018-07-01T05:05:58.892Z,1012.74
2018-07-01T05:06:58.875Z,1012.72
2018-07-01T05:07:58.746Z,1012.72
2018-07-01T05:08:58.683Z,1012.74
2018-07-01T05:09:58.607Z,1012.74
2018-07-01T05:10:58.595Z,1012.83
2018-07-01T05:11:58.429Z,1012.81
2018-07-01T05:12:58.402Z,1012.82
2018-07-01T05:13:58.298Z,1012.83
2018-07-01T05:14:58.212Z,1012.87
2018-07-01T05:15:58.106Z,1012.84
2018-07-01T05:16:58.124Z,1012.80
2018-07-01T05:17:57.967Z,1012.83
2018-07-01T05:18:57.972Z,1012.83
2018-07-01T05:19:57.804Z,1012.82
2018-07-01T05:22:39.764Z,1012.84
2018-07-01T05:23:39.737Z,1012.83
2018-07-01T05:24:39.646Z,1012.83
2018-07-01T05:25:39.576Z,1012.84
2018-07-01T05:26:39.451Z,1012.88
2018-07-01T05:27:39.542Z,1012.87
2018-07-01T05:28:39.304Z,1012.88
2018-07-01T05:29:39.281Z,1012.86
2018-07-01T05:30:39.159Z,1012.88
2018-07-01T05:31:39.177Z,1012.90
2018-07-01T05:32:38.981Z,1012.87
2018-07-01T05:33:38.991Z,1012.81
2018-07-01T05:34:38.822Z,1012.83
2018-07-01T05:35:38.938Z,1012.88
2018-07-01T05:36:38.678Z,1012.82
2018-07-01T05:37:38.704Z,1012.85
2018-07-01T05:38:38.552Z,1012.80
2018-07-01T05:39:38.514Z,1012.84
2018-07-01T05:40:38.378Z,1012.83
2018-07-01T05:41:38.413Z,1012.88
2018-07-01T05:42:38.202Z,1012.86
2018-07-01T05:43:38.244Z,1012.89
2018-07-01T05:44:38.050Z,1012.87
2018-07-01T05:47:20.301Z,1012.94
2018-07-01T05:48:20.240Z,1012.95
2018-07-01T05:49:20.174Z,1012.97
2018-07-01T05:50:22.104Z,1012.98
2018-07-01T05:51:20.050Z,1013.03
2018-07-01T05:52:20.001Z,1013.01
2018-07-01T05:53:19.798Z,1013.01
2018-07-01T05:54:19.765Z,1012.98
2018-07-01T05:55:19.643Z,1012.95
2018-07-01T05:56:19.694Z,1012.99
2018-07-01T05:57:19.508Z,1012.97
2018-07-01T05:58:19.491Z,1012.99
2018-07-01T05:59:19.384Z,1013.05
2018-07-01T06:00:19.305Z,1013.03
2018-07-01T06:01:19.168Z,1013.08
2018-07-01T06:02:19.247Z,1013.01
2018-07-01T06:03:19.019Z,1013.07
2018-07-01T06:04:19.035Z,1013.05
2018-07-01T06:05:18.866Z,1012.95
2018-07-01T06:06:18.822Z,1012.96
2018-07-01T06:07:18.733Z,1013.06
2018-07-01T06:08:18.741Z,1012.97
2018-07-01T06:09:18.539Z,1012.99
2018-07-01T06:12:00.777Z,1013.00
2018-07-01T06:13:00.811Z,1013.00
2018-07-01T06:14:00.673Z,1013.02
2018-07-01T06:15:00.665Z,1013.05
2018-07-01T06:16:00.500Z,1013.08
2018-07-01T06:17:00.474Z,1013.10
2018-07-01T06:18:00.429Z,1013.11
2018-07-01T06:19:00.283Z,1013.20
2018-07-01T06:20:00.169Z,1013.19
2018-07-01T06:21:00.198Z,1013.15
2018-07-01T06:21:59.995Z,1013.14
2018-07-01T06:22:59.994Z,1013.16
2018-07-01T06:23:59.860Z,1013.16
2018-07-01T06:24:59.809Z,1013.13
2018-07-01T06:25:59.707Z,1013.15
2018-07-01T06:26:59.721Z,1013.11
2018-07-01T06:27:59.544Z,1013.18
2018-07-01T06:28:59.551Z,1013.16
2018-07-01T06:29:59.372Z,1013.16
2018-07-01T06:32:41.314Z,1013.21
2018-07-01T06:33:41.490Z,1013.47
2018-07-01T06:34:41.129Z,1013.86
2018-07-01T06:35:41.139Z,1014.20
2018-07-01T06:36:40.970Z,1014.26
2018-07-01T06:37:40.943Z,1014.23
2018-07-01T06:38:40.830Z,1014.19
2018-07-01T06:39:40.804Z,1014.33
2018-07-01T06:40:40.660Z,1014.23
2018-07-01T06:41:40.667Z,1014.32
2018-07-01T06:42:40.518Z,1014.33
2018-07-01T06:43:40.476Z,1014.35
2018-07-01T06:44:40.368Z,1014.33
2018-07-01T06:45:40.385Z,1014.41
2018-07-01T06:46:40.250Z,1014.38
2018-07-01T06:47:40.190Z,1014.44
2018-07-01T06:48:40.062Z,1014.25
2018-07-01T06:49:40.037Z,1014.21
2018-07-01T06:50:39.900Z,1014.27
2018-07-01T06:51:39.915Z,1014.23
2018-07-01T06:52:39.755Z,1014.23
2018-07-01T06:53:39.722Z,1014.25
2018-07-01T06:54:39.628Z,1014.21
2018-07-01T06:55:39.686Z,1014.16
2018-07-01T06:56:39.465Z,1014.15
2018-07-01T06:57:39.447Z,1014.24
2018-07-01T06:58:39.308Z,1014.16
2018-07-01T06:59:39.245Z,1014.03
2018-07-01T07:00:39.176Z,1014.09
2018-07-01T07:01:39.099Z,1014.15
2018-07-01T07:02:39.030Z,1014.07
2018-07-01T07:03:38.976Z,1014.09
2018-07-01T07:04:38.882Z,1014.11
2018-07-01T07:05:38.921Z,1014.07
2018-07-01T07:06:38.722Z,1013.91
2018-07-01T07:07:38.687Z,1014.16
2018-07-01T07:08:38.576Z,1014.37
2018-07-01T07:09:38.607Z,1014.35
2018-07-01T07:10:38.443Z,1014.16
2018-07-01T07:11:38.436Z,1014.18
2018-07-01T07:12:38.342Z,1014.32
2018-07-01T07:13:38.332Z,1014.36
2018-07-01T07:14:38.125Z,1014.14
2018-07-01T07:15:38.267Z,1014.20
2018-07-01T07:16:37.990Z,1014.15
2018-07-01T07:17:37.939Z,1014.33
2018-07-01T07:18:37.879Z,1014.16
2018-07-01T07:19:37.864Z,1014.22
2018-07-01T07:20:37.688Z,1014.20
2018-07-01T07:21:37.692Z,1014.19
2018-07-01T07:22:37.542Z,1014.18
2018-07-01T07:23:37.561Z,1014.24
2018-07-01T07:24:37.402Z,1014.26
2018-07-01T07:25:37.479Z,1014.18
2018-07-01T07:26:37.270Z,1014.09
2018-07-01T07:27:37.286Z,1014.13
2018-07-01T07:28:37.176Z,1014.02
2018-07-01T07:29:37.097Z,1014.08
2018-07-01T07:30:36.970Z,1014.09
2018-07-01T07:31:37.043Z,1014.10
2018-07-01T07:32:36.806Z,1014.09
2018-07-01T07:33:36.806Z,1014.05
2018-07-01T07:34:36.668Z,1014.12
2018-07-01T07:35:36.619Z,1014.03
2018-07-01T07:36:36.539Z,1014.03
2018-07-01T07:37:36.534Z,1014.12
2018-07-01T07:38:36.379Z,1013.99
2018-07-01T07:39:36.331Z,1013.95
2018-07-01T07:40:36.231Z,1014.04
2018-07-01T07:41:36.284Z,1013.98
2018-07-01T07:42:36.092Z,1013.98
2018-07-01T07:43:36.056Z,1014.06
2018-07-01T07:44:35.940Z,1013.98
2018-07-01T07:47:17.855Z,1014.11
2018-07-01T07:48:17.869Z,1014.08
2018-07-01T07:49:17.668Z,1014.03
2018-07-01T07:50:17.679Z,1013.93
2018-07-01T07:51:17.567Z,1014.05
2018-07-01T07:52:17.593Z,1014.08
2018-07-01T07:53:17.411Z,1014.10
2018-07-01T07:54:17.390Z,1014.16
2018-07-01T07:55:17.253Z,1014.19
2018-07-01T07:56:17.202Z,1014.20
2018-07-01T07:57:17.166Z,1014.21
2018-07-01T07:58:17.123Z,1014.15
2018-07-01T08:02:03.502Z,1014.29
2018-07-01T08:03:03.367Z,1014.61
2018-07-01T08:04:03.326Z,1014.39
2018-07-01T08:05:03.157Z,1014.52
2018-07-01T08:06:03.134Z,1014.56
2018-07-01T08:07:02.967Z,1014.29
2018-07-01T08:08:02.969Z,1014.53
2018-07-01T08:09:02.841Z,1014.58
2018-07-01T08:10:02.853Z,1014.60
2018-07-01T08:11:02.703Z,1014.83
2018-07-01T08:12:02.666Z,1014.66
2018-07-01T08:13:02.654Z,1014.55
2018-07-01T08:14:02.575Z,1014.70
2018-07-01T08:15:02.397Z,1014.56
2018-07-01T08:16:02.389Z,1014.80
2018-07-01T08:17:02.273Z,1014.83
2018-07-01T08:18:02.293Z,1014.65
2018-07-01T08:19:02.135Z,1014.60
2018-07-01T08:20:02.101Z,1014.66
2018-07-01T08:21:01.987Z,1014.52
2018-07-01T08:22:02.090Z,1014.48
2018-07-01T08:23:01.836Z,1014.53
2018-07-01T08:24:01.849Z,1014.74
2018-07-01T08:25:01.707Z,1014.53
2018-07-01T08:26:01.728Z,1014.52
2018-07-01T08:27:01.575Z,1014.53
2018-07-01T08:28:01.541Z,1014.55
2018-07-01T08:29:01.506Z,1014.56
2018-07-01T08:30:01.466Z,1014.58
2018-07-01T08:31:01.283Z,1014.57
2018-07-01T08:32:01.263Z,1014.59
2018-07-01T08:33:01.130Z,1014.46
2018-07-01T08:34:01.196Z,1014.45
2018-07-01T08:35:00.987Z,1014.38
2018-07-01T08:36:00.979Z,1014.36
2018-07-01T08:37:00.881Z,1014.39
2018-07-01T08:38:00.893Z,1014.31
2018-07-01T08:39:00.722Z,1014.23
2018-07-01T08:40:00.728Z,1014.25
2018-07-01T08:41:00.787Z,1014.22
2018-07-01T08:43:42.830Z,1014.18
2018-07-01T08:44:42.848Z,1014.22
2018-07-01T08:45:42.707Z,1014.27
2018-07-01T08:46:42.730Z,1014.31
2018-07-01T08:47:42.560Z,1014.42
2018-07-01T08:48:42.630Z,1014.26
2018-07-01T08:49:42.456Z,1014.33
2018-07-01T08:50:42.467Z,1014.41
2018-07-01T08:51:42.294Z,1014.28
2018-07-01T08:52:42.317Z,1014.22
2018-07-01T08:53:42.155Z,1014.35
2018-07-01T08:54:42.182Z,1014.34
2018-07-01T08:55:42.025Z,1014.26
2018-07-01T08:56:41.976Z,1014.30
2018-07-01T08:57:41.893Z,1014.18
2018-07-01T08:58:41.874Z,1014.28
2018-07-01T08:59:41.855Z,1014.22
2018-07-01T09:00:41.729Z,1014.23
2018-07-01T09:01:41.603Z,1014.21
2018-07-01T09:02:41.600Z,1014.24
2018-07-01T09:03:41.470Z,1014.34
2018-07-01T09:04:41.576Z,1014.15
2018-07-01T09:05:41.358Z,1014.26
2018-07-01T09:06:41.324Z,1014.35
2018-07-01T09:07:41.186Z,1014.25
2018-07-01T09:08:41.292Z,1014.36
2018-07-01T09:09:41.071Z,1014.29
2018-07-01T09:10:41.083Z,1014.41
2018-07-01T09:11:40.962Z,1014.39
2018-07-01T09:12:40.954Z,1014.41
2018-07-01T09:13:40.820Z,1014.47
2018-07-01T09:14:40.791Z,1014.46
2018-07-01T09:15:40.749Z,1014.43
2018-07-01T09:16:40.721Z,1014.41
2018-07-01T09:17:40.519Z,1014.43
2018-07-01T09:18:40.570Z,1014.40
2018-07-01T09:19:40.452Z,1014.37
2018-07-01T09:20:40.382Z,1014.38
2018-07-01T09:21:40.268Z,1014.38
2018-07-01T09:22:40.346Z,1014.39
2018-07-01T09:23:40.153Z,1014.49
2018-07-01T09:24:40.119Z,1014.30
2018-07-01T09:25:39.992Z,1014.40
2018-07-01T09:26:40.059Z,1014.44
2018-07-01T09:27:39.900Z,1014.44
2018-07-01T09:28:39.821Z,1014.43
2018-07-01T09:29:39.728Z,1014.47
2018-07-01T09:30:39.752Z,1014.41
2018-07-01T09:31:39.611Z,1014.40
2018-07-01T09:32:39.570Z,1014.43
2018-07-01T09:33:39.499Z,1014.48
2018-07-01T09:34:39.500Z,1014.46
2018-07-01T09:35:39.338Z,1014.39
2018-07-01T09:36:39.364Z,1014.48
2018-07-01T09:37:39.242Z,1014.55
2018-07-01T09:38:39.182Z,1014.54
2018-07-01T09:39:39.078Z,1014.49
2018-07-01T09:40:39.095Z,1014.47
2018-07-01T09:41:38.942Z,1014.50
2018-07-01T09:42:38.947Z,1014.48
2018-07-01T09:43:38.820Z,1014.40
2018-07-01T09:44:38.819Z,1014.52
2018-07-01T09:45:38.673Z,1014.43
2018-07-01T09:46:38.735Z,1014.45
2018-07-01T09:47:38.568Z,1014.50
2018-07-01T09:48:38.532Z,1014.59
2018-07-01T09:49:38.427Z,1014.58
2018-07-01T09:50:38.449Z,1014.57
2018-07-01T09:51:38.308Z,1014.52
2018-07-01T09:52:38.272Z,1014.59
2018-07-01T09:53:38.168Z,1014.55
2018-07-01T09:54:38.275Z,1014.50
2018-07-01T09:55:38.094Z,1014.57
2018-07-01T09:56:38.137Z,1014.45
2018-07-01T09:57:37.909Z,1014.44
2018-07-01T09:58:37.873Z,1014.47
2018-07-01T09:59:37.786Z,1014.51
2018-07-01T10:00:38.140Z,1014.47
2018-07-01T10:01:37.701Z,1014.49
2018-07-01T10:02:37.694Z,1014.45
2018-07-01T10:03:37.530Z,1014.44
2018-07-01T10:04:37.513Z,1014.52
2018-07-01T10:05:37.413Z,1014.45
2018-07-01T10:06:37.454Z,1014.41
2018-07-01T10:07:37.292Z,1014.33
2018-07-01T10:08:37.328Z,1014.30
2018-07-01T10:09:37.145Z,1014.33
2018-07-01T10:10:37.147Z,1014.26
2018-07-01T10:11:37.044Z,1014.31
2018-07-01T10:12:37.199Z,1014.32
2018-07-01T10:13:36.917Z,1014.26
2018-07-01T10:14:37.273Z,1014.28
2018-07-01T10:15:36.772Z,1014.25
2018-07-01T10:18:18.921Z,1014.16
2018-07-01T10:19:18.883Z,1014.22
2018-07-01T10:20:18.746Z,1014.23
2018-07-01T10:21:18.780Z,1014.15
2018-07-01T10:22:18.620Z,1014.27
2018-07-01T10:23:18.626Z,1014.21
2018-07-01T10:24:18.517Z,1014.20
2018-07-01T10:25:18.501Z,1014.27
2018-07-01T10:26:18.377Z,1014.28
2018-07-01T10:27:18.416Z,1014.23
2018-07-01T10:28:18.258Z,1014.26
2018-07-01T10:29:18.237Z,1014.29
2018-07-01T10:30:18.113Z,1014.31
2018-07-01T10:31:18.125Z,1014.30
2018-07-01T10:32:17.994Z,1014.22
2018-07-01T10:33:18.062Z,1014.26
2018-07-01T10:34:17.860Z,1014.27
2018-07-01T10:35:17.858Z,1014.24
2018-07-01T10:36:17.759Z,1014.19
2018-07-01T10:37:17.916Z,1014.20
2018-07-01T10:38:17.610Z,1014.16
2018-07-01T10:39:17.605Z,1014.16
2018-07-01T10:40:17.634Z,1014.17
2018-07-01T10:41:17.551Z,1014.14
2018-07-01T10:42:17.530Z,1014.18
2018-07-01T10:43:17.385Z,1014.13
2018-07-01T10:44:17.254Z,1014.15
2018-07-01T10:45:17.197Z,1014.19
2018-07-01T10:46:17.099Z,1014.22
2018-07-01T10:47:17.112Z,1014.16
2018-07-01T10:48:16.968Z,1014.15
2018-07-01T10:49:17.016Z,1014.09
2018-07-01T10:50:16.877Z,1014.10
2018-07-01T10:51:16.890Z,1013.98
2018-07-01T10:52:16.750Z,1013.98
2018-07-01T10:53:16.750Z,1014.06
2018-07-01T10:54:16.591Z,1014.01
2018-07-01T10:55:16.679Z,1014.05
2018-07-01T10:56:16.462Z,1013.95
2018-07-01T10:57:16.458Z,1013.91
2018-07-01T10:58:16.352Z,1013.89
2018-07-01T10:59:16.362Z,1013.86
2018-07-01T11:00:16.247Z,1013.92
2018-07-01T11:02:58.438Z,1013.84
2018-07-01T11:03:58.405Z,1013.83
2018-07-01T11:04:58.264Z,1013.80
2018-07-01T11:05:58.374Z,1013.78
2018-07-01T11:06:58.152Z,1013.75
2018-07-01T11:07:58.138Z,1013.74
2018-07-01T11:08:58.009Z,1013.77
2018-07-01T11:09:58.019Z,1013.79
2018-07-01T11:10:57.926Z,1013.74
2018-07-01T11:11:57.931Z,1013.81
2018-07-01T11:12:57.767Z,1013.78
2018-07-01T11:13:57.754Z,1013.78
2018-07-01T11:14:57.634Z,1013.75
2018-07-01T11:15:57.682Z,1013.76
2018-07-01T11:16:57.510Z,1013.80
2018-07-01T11:17:57.554Z,1013.77
2018-07-01T11:18:57.383Z,1013.71
2018-07-01T11:19:57.367Z,1013.68
2018-07-01T11:20:57.324Z,1013.54
2018-07-01T11:21:57.282Z,1013.84
2018-07-01T11:22:57.138Z,1013.59
2018-07-01T11:23:57.185Z,1013.61
2018-07-01T11:24:57.023Z,1013.58
2018-07-01T11:25:58.071Z,1013.61
2018-07-01T11:26:57.033Z,1013.60
2018-07-01T11:27:56.910Z,1013.54
2018-07-01T11:30:21.392Z,1013.58
2018-07-01T11:31:21.444Z,1013.58
2018-07-01T11:32:21.286Z,1013.57
2018-07-01T11:33:21.322Z,1013.53
2018-07-01T11:34:21.154Z,1013.57
2018-07-01T11:35:21.216Z,1013.51
2018-07-01T11:36:21.031Z,1013.49
2018-07-01T11:37:21.071Z,1013.37
2018-07-01T11:38:20.891Z,1013.48
2018-07-01T11:39:20.950Z,1013.46
2018-07-01T11:40:20.765Z,1013.35
2018-07-01T11:41:20.854Z,1013.33
2018-07-01T11:42:20.659Z,1013.38
2018-07-01T11:43:20.646Z,1013.39
2018-07-01T11:44:20.530Z,1013.38
2018-07-01T11:45:20.552Z,1013.26
2018-07-01T11:46:20.400Z,1012.97
2018-07-01T11:47:20.401Z,1012.79
2018-07-01T11:48:20.267Z,1012.74
2018-07-01T11:49:20.316Z,1012.67
2018-07-01T11:50:20.179Z,1012.68
2018-07-01T11:51:20.199Z,1012.65
2018-07-01T11:52:20.067Z,1012.66
2018-07-01T11:53:20.039Z,1012.65
2018-07-01T11:54:19.891Z,1012.68
2018-07-01T11:55:19.932Z,1012.73
2018-07-01T11:56:19.777Z,1012.77
2018-07-01T11:57:19.754Z,1012.76
2018-07-01T11:58:19.648Z,1012.70
2018-07-01T11:59:19.637Z,1012.68
2018-07-01T12:00:19.533Z,1012.60
2018-07-01T12:01:19.920Z,1012.65
2018-07-01T12:02:19.404Z,1012.64
2018-07-01T12:03:19.360Z,1012.65
2018-07-01T12:04:19.262Z,1012.72
2018-07-01T12:05:19.303Z,1012.63
2018-07-01T12:06:19.127Z,1012.62
2018-07-01T12:07:19.176Z,1012.63
2018-07-01T12:08:19.011Z,1012.57
2018-07-01T12:09:18.972Z,1012.58
2018-07-01T12:10:18.839Z,1012.61
2018-07-01T12:11:18.888Z,1012.63
2018-07-01T12:12:18.711Z,1012.68
2018-07-01T12:13:18.780Z,1012.68
2018-07-01T12:14:18.564Z,1012.62
2018-07-01T12:15:18.618Z,1012.56
2018-07-01T12:16:18.429Z,1012.60
2018-07-01T12:17:18.419Z,1012.61
2018-07-01T12:18:18.302Z,1012.59
2018-07-01T12:19:18.332Z,1012.55
2018-07-01T12:20:18.369Z,1012.51
2018-07-01T12:21:18.172Z,1012.48
2018-07-01T12:22:18.202Z,1012.53
2018-07-01T12:23:18.106Z,1012.45
2018-07-01T12:24:17.866Z,1012.50
2018-07-01T12:25:17.852Z,1012.43
2018-07-01T12:26:17.807Z,1012.46
2018-07-01T12:27:17.765Z,1012.41
2018-07-01T12:28:17.616Z,1012.45
2018-07-01T12:29:17.621Z,1012.43
2018-07-01T12:30:17.453Z,1012.36
2018-07-01T12:31:17.440Z,1012.40
2018-07-01T12:32:17.294Z,1012.39
2018-07-01T12:33:17.343Z,1012.43
2018-07-01T12:34:17.189Z,1012.39
2018-07-01T12:35:17.094Z,1012.41
2018-07-01T12:36:17.006Z,1012.45
2018-07-01T12:37:17.059Z,1012.42
2018-07-01T12:38:16.865Z,1012.46
2018-07-01T12:39:16.838Z,1012.38
2018-07-01T12:40:16.783Z,1012.41
2018-07-01T12:41:16.743Z,1012.29
2018-07-01T12:42:16.638Z,1012.38
2018-07-01T12:43:16.564Z,1012.34
2018-07-01T12:44:16.439Z,1012.24
2018-07-01T12:45:16.499Z,1012.25
2018-07-01T12:46:16.359Z,1012.34
2018-07-01T12:47:16.277Z,1012.33
2018-07-01T12:48:16.136Z,1012.32
2018-07-01T12:49:16.185Z,1012.28
2018-07-01T12:50:16.034Z,1012.31
2018-07-01T12:51:15.986Z,1012.23
2018-07-01T12:52:15.832Z,1012.18
2018-07-01T12:53:15.900Z,1012.07
2018-07-01T12:54:15.710Z,1012.18
2018-07-01T12:55:15.745Z,1012.15
2018-07-01T12:56:15.608Z,1012.13
2018-07-01T12:57:15.503Z,1012.02
2018-07-01T12:58:15.409Z,1012.19
2018-07-01T12:59:15.427Z,1012.20
2018-07-01T13:00:15.267Z,1012.18